x

8454049 - Quonset Point, Ri (qptr1) Weather Station

1:54pm - Tue 9th Feb 2016 All times are EST. -5 hours from GMT.

  • Wind
    8mph, 10mph gusts
  • Sea Temp 38°f
  • 空気 Temp 30°f
  • Sea Pressure 1001.9mb
  • 8454049 - Quonset Point, Ri
  • 8454049 - Quonset Point, Ri

More Historic Weather Station data

Upgrade to MSW Pro to gain access to the past 30 days of data for over 8000 Wavebouys and Weather Stations around the globe.

Join Pro

Comparision Forecast

View Surf forecast
   
Tue 02/09 1:54pm 8 10 mph 1001.9mb 38f 30f
1:48pm 7 9 mph 1001.8mb 38f 30f
1:42pm 8 10 mph 1001.7mb 38f 30f
1:36pm 9 11 mph 1001.9mb 38f 30f
1:30pm 8 11 mph 1002mb 38f 29f
1:24pm 9 11 mph 1002mb 38f 29f
1:18pm 9 11 mph 1001.9mb 38f 29f
1:12pm 10 13 mph 1002mb 38f 29f
1:06pm 10 14 mph 1001.9mb 38f 29f
1:00pm 10 13 mph 1002mb 38f 29f
12:54pm 10 14 mph 1002.2mb 38f 29f
12:48pm 11 14 mph 1002.2mb 38f 29f
12:42pm 11 13 mph 1002.4mb 38f 29f
12:36pm 11 14 mph 1002.3mb 38f 28f
12:30pm 13 15 mph 1002.3mb 38f 28f
12:24pm 10 14 mph 1002.6mb 38f 28f
12:18pm 11 13 mph 1002.7mb 38f 28f
12:12pm 11 13 mph 1002.9mb 38f 28f
12:06pm 11 14 mph 1002.9mb 38f 28f
12:00pm 9 14 mph 1003.2mb 38f 28f
11:54am 11 14 mph 1003.3mb 38f 28f
11:48am 10 14 mph 1003.3mb 38f 28f
11:42am 11 14 mph 1003.4mb 38f 27f
11:36am 13 15 mph 1003.5mb 38f 27f
11:30am 11 15 mph 1003.5mb 38f 27f
11:24am 13 15 mph 1003.8mb 38f 26f
11:18am 13 16 mph 1003.8mb 38f 26f
11:12am 13 16 mph 1003.7mb 38f 26f
11:06am 14 17 mph 1003.6mb 38f 26f
11:00am 14 15 mph 1003.8mb 38f 26f
10:54am 13 15 mph 1004.1mb 38f 26f
10:48am 14 16 mph 1004.2mb 38f 25f
10:42am 11 15 mph 1004.3mb 38f 25f
10:36am 13 15 mph 1004.3mb 38f 25f
10:30am 13 16 mph 1004.5mb 38f 25f
10:24am 11 15 mph 1004.7mb 38f 24f
10:18am 10 13 mph 1005mb 38f 24f
10:12am 10 11 mph 1005.2mb 38f 24f
10:06am 11 13 mph 1005.3mb 38f 24f
10:00am 9 13 mph 1005.3mb 38f 24f
9:54am 10 11 mph 1005.5mb 38f 24f
9:48am 9 11 mph 1005.7mb 38f 24f
9:42am 9 13 mph 1005.7mb 38f 24f
9:36am 9 13 mph 1005.7mb 38f 24f
9:30am 10 14 mph 1005.8mb 38f 24f
9:24am 11 14 mph 1005.6mb 38f 23f
9:18am 11 14 mph 1005.4mb 38f 23f
9:12am 10 14 mph 1005.4mb 38f 23f
9:06am 10 14 mph 1005.6mb 38f 23f
9:00am 8 13 mph 1005.9mb 38f 23f
8:54am 10 13 mph 1005.8mb 38f 23f
8:48am 10 13 mph 1005.8mb 38f 23f
8:42am 9 13 mph 1005.9mb 38f 23f
8:36am 11 14 mph 1005.7mb 38f 23f
8:30am 11 13 mph 1006mb 38f 23f
8:24am 9 13 mph 1006.1mb 38f 23f
8:18am 10 13 mph 1006.2mb 38f 23f
8:12am 9 11 mph 1006.2mb 38f 23f
8:06am 9 11 mph 1006.4mb 38f 23f
8:00am 8 10 mph 1006.6mb 38f 23f
7:54am 8 9 mph 1006.6mb 38f 23f
7:48am 7 8 mph 1006.7mb 38f 23f
7:42am 6 7 mph 1006.8mb 38f 22f
7:36am 7 9 mph 1006.7mb 38f 23f
7:30am 7 9 mph 1006.7mb 38f 23f
7:24am 7 9 mph 1006.7mb 38f 22f
7:18am 6 8 mph 1006.8mb 38f 22f
7:12am 7 9 mph 1006.8mb 38f 23f
7:06am 6 9 mph 1006.8mb 38f 23f
7:00am 7 8 mph 1006.8mb 38f 22f
6:54am 6 9 mph 1006.8mb 38f 22f
6:48am 7 9 mph 1006.5mb 38f 22f
6:42am 9 11 mph 1006.2mb 38f 22f
6:36am 6 8 mph 1006.1mb 38f 22f
6:30am 6 7 mph 1006mb 38f 22f
6:24am 6 10 mph 1006mb 38f 22f
6:18am 10 15 mph 1005.7mb 38f 22f
6:12am 14 20 mph 1004.9mb 38f 22f
6:06am 15 21 mph 1004.9mb 38f 23f
6:00am 20 22 mph 1004.7mb 38f 23f
5:54am 17 22 mph 1004.2mb 38f 23f
5:48am 20 24 mph 1004.1mb 38f 22f
5:42am 18 23 mph 1004.3mb 38f 22f
5:36am 18 22 mph 1004.8mb 38f 22f
5:30am 15 18 mph 1005.2mb 38f 23f
5:24am 15 17 mph 1005.4mb 38f 22f
5:18am 13 15 mph 1005.9mb 38f 22f
5:12am 14 16 mph 1006.2mb 38f 22f
5:06am 13 16 mph 1006.4mb 38f 22f
5:00am 10 14 mph 1006.6mb 38f 23f
4:54am 10 14 mph 1006.6mb 38f 22f
4:48am  -  mph 1006.9mb 38f 23f
4:42am  -  mph 1007mb 38f 23f
4:36am  -  mph 1007mb 38f 22f
4:30am 9 13 mph 1006.9mb 38f 23f
4:24am 8 11 mph 1007mb 38f 23f
4:18am 10 15 mph 1006.8mb 38f 23f
4:12am 11 15 mph 1006.6mb 38f 23f
4:06am 9 14 mph 1006.6mb 38f 23f
4:00am 11 14 mph 1006.4mb 38f 23f
3:54am 11 14 mph 1006.4mb 38f 23f
3:48am 11 16 mph 1006.4mb 38f 22f
3:42am 14 17 mph 1006.3mb 38f 22f
3:36am 14 16 mph 1006.4mb 38f 22f
3:30am 13 16 mph 1006.6mb 38f 22f
3:24am 11 16 mph 1006.6mb 38f 23f
3:18am 13 16 mph 1006.7mb 38f 22f
3:12am 14 16 mph 1006.7mb 38f 22f
3:06am 11 14 mph 1007mb 38f 22f
3:00am 11 15 mph 1007.2mb 38f 22f
2:54am 13 17 mph 1007.2mb 38f 22f
2:48am 13 17 mph 1007.1mb 38f 23f
2:42am 14 16 mph 1007.3mb 38f 23f
2:36am 11 14 mph 1007.4mb 38f 23f
2:30am 11 17 mph 1007.5mb 38f 23f
2:24am 15 17 mph 1007.5mb 38f 23f
2:18am 14 17 mph 1007.6mb 38f 23f
2:12am 14 16 mph 1007.7mb 38f 23f
2:06am 14 17 mph 1007.8mb 38f 23f
2:00am 11 15 mph 1007.9mb 38f 23f
1:54am 9 14 mph 1007.9mb 38f 23f
1:48am 11 15 mph 1007.9mb 38f 23f
1:42am 13 16 mph 1007.8mb 38f 23f
1:36am 13 17 mph 1007.8mb 38f 23f
1:30am 14 17 mph 1007.8mb 38f 23f
1:24am 13 17 mph 1007.8mb 38f 23f
1:18am 11 15 mph 1007.7mb 38f 23f
1:12am 14 17 mph 1007.7mb 38f 23f
1:06am 15 17 mph 1007.7mb 38f 23f
1:00am 14 20 mph 1007.7mb 38f 23f
12:54am 15 21 mph 1007.7mb 38f 23f
12:48am 15 18 mph 1007.7mb 38f 23f
12:42am 16 20 mph 1007.8mb 38f 23f
12:36am 14 21 mph 1007.8mb 38f 23f
12:30am 16 22 mph 1007.8mb 38f 23f
12:24am 15 20 mph 1007.8mb 38f 23f
12:18am 15 20 mph 1007.9mb 38f 23f
12:12am 17 22 mph 1008mb 38f 23f
12:06am 18 23 mph 1008mb 39f 23f
12:00am 20 23 mph 1008mb 39f 23f
Mon 02/08 11:54pm 15 22 mph 1008.1mb 39f 23f
11:48pm 15 21 mph 1008.1mb 39f 23f
11:42pm 17 21 mph 1008.1mb 39f 22f
11:36pm 16 23 mph 1008.2mb 39f 23f
11:30pm 15 23 mph 1008.1mb 39f 22f
11:24pm 15 21 mph 1008.2mb 39f 22f
11:18pm 17 24 mph 1008.3mb 39f 22f
11:12pm 14 21 mph 1008.3mb 39f 22f
11:06pm 16 22 mph 1008.4mb 39f 22f
11:00pm 17 21 mph 1008.5mb 39f 22f
10:54pm 16 21 mph 1008.5mb 39f 22f
10:48pm 18 23 mph 1008.5mb 39f 22f
10:42pm 16 25 mph 1008.5mb 39f 22f
10:36pm 16 21 mph 1008.6mb 39f 22f
10:30pm 17 23 mph 1008.6mb 39f 22f
10:24pm 16 22 mph 1008.5mb 39f 22f
10:18pm 15 18 mph 1008.6mb 39f 22f
10:12pm 16 20 mph 1008.6mb 39f 22f
10:06pm 17 22 mph 1008.6mb 39f 22f
10:00pm 16 24 mph 1008.6mb 39f 22f
9:54pm 17 23 mph 1008.4mb 39f 22f
9:48pm 21 26 mph 1008.3mb 39f 22f
9:42pm 18 23 mph 1008.3mb 39f 22f
9:36pm 21 24 mph 1008.2mb 39f 22f
9:30pm 20 26 mph 1008.1mb 39f 22f
9:24pm 20 24 mph 1008.1mb 39f 22f
9:18pm 17 24 mph 1008.3mb 38f 22f
9:12pm 18 23 mph 1008.2mb 38f 22f
9:06pm 20 28 mph 1008.1mb 38f 22f
9:00pm 21 28 mph 1008.1mb 38f 22f
8:54pm 18 23 mph 1008.3mb 38f 22f
8:48pm  -  mph 1008.5mb 38f 22f
8:42pm  -  mph 1008.6mb 38f 23f
8:36pm  -  mph 1008.6mb 38f 22f
8:30pm  -  mph 1008.5mb 38f 22f
8:24pm  -  mph 1008.5mb 38f 22f
8:18pm  -  mph 1008.3mb 38f 22f
8:12pm  -  mph 1008.2mb 38f 22f
8:06pm  -  mph 1008mb 38f 22f
8:00pm 16 21 mph 1008mb 38f 22f
7:54pm 18 24 mph 1007.9mb 38f 22f
7:48pm 21 25 mph 1007.8mb 38f 22f
7:42pm 18 22 mph 1007.8mb 38f 22f
7:36pm 18 23 mph 1008mb 38f 22f
7:30pm 17 23 mph 1008mb 38f 22f
7:24pm 16 21 mph 1008mb 38f 22f
7:18pm 17 22 mph 1008mb 38f 22f
7:12pm 16 22 mph 1008mb 38f 22f
7:06pm 15 20 mph 1008mb 38f 22f
7:00pm 18 23 mph 1007.9mb 38f 22f
6:54pm 16 21 mph 1007.9mb 38f 22f
6:48pm 18 23 mph 1007.8mb 38f -
6:42pm 15 22 mph 1007.8mb 38f -
6:36pm 17 24 mph 1007.7mb 38f -
6:30pm 17 22 mph 1007.6mb 38f 22f
6:24pm 18 22 mph 1007.4mb 39f 22f
6:18pm 20 26 mph 1007.3mb 39f 22f
6:12pm 21 28 mph 1007.1mb 39f 22f
6:06pm 18 23 mph 1007.1mb 39f 22f
6:00pm 18 24 mph 1007mb 39f 22f
5:54pm 18 24 mph 1006.9mb 39f 22f
5:48pm 17 22 mph 1006.8mb 39f 22f
5:42pm 20 24 mph 1006.7mb 39f 22f
5:36pm 16 23 mph 1006.7mb 39f 22f
5:30pm 17 23 mph 1006.6mb 39f 22f
5:24pm 16 23 mph 1006.6mb 39f 22f
5:18pm 20 23 mph 1006.5mb 39f 22f
5:12pm 15 22 mph 1006.5mb 39f 22f
5:06pm 16 25 mph 1006.4mb 39f 23f
5:00pm 18 22 mph 1006.2mb 39f 22f
4:54pm 17 26 mph 1006.1mb 39f 23f
4:48pm  -  mph 1005.9mb 39f 22f
4:42pm  -  mph 1005.7mb 39f 22f
4:36pm  -  mph 1005.6mb 39f 22f
4:30pm 21 29 mph 1005.6mb 39f 22f
4:24pm 23 29 mph 1005.5mb 39f 22f
4:18pm 23 34 mph 1005.5mb 39f 22f
4:12pm 25 30 mph 1005.2mb 39f 22f
4:06pm 22 28 mph 1005.2mb 39f 22f
4:00pm 21 30 mph 1005.1mb 39f 22f
3:54pm 22 30 mph 1005mb 39f 22f
3:48pm 24 32 mph 1004.8mb 39f 22f
3:42pm 22 30 mph 1004.8mb 39f 22f
3:36pm 26 33 mph 1004.6mb 39f 22f
3:30pm 24 32 mph 1004.5mb 39f 22f
3:24pm 22 29 mph 1004.4mb 39f 22f
3:18pm 23 30 mph 1004.4mb 39f 22f
3:12pm 26 32 mph 1004.3mb 39f 22f
3:06pm 22 31 mph 1004.3mb 39f 22f
3:00pm 29 34 mph 1004.2mb 39f 22f
2:54pm 29 36 mph 1004.1mb 39f 22f
2:48pm 24 31 mph 1004.1mb 39f 22f
2:42pm 25 32 mph 1004.1mb 39f 22f
2:36pm 25 38 mph 1004.2mb 39f 22f
2:30pm 23 31 mph 1004.2mb 39f 22f
2:24pm 24 30 mph 1004.3mb 39f 22f
2:18pm 26 30 mph 1004.3mb 39f 22f
2:12pm 25 31 mph 1004.3mb 39f 22f
2:06pm 25 33 mph 1004.2mb 39f 22f
2:00pm 28 33 mph 1004.1mb 39f 22f
1:54pm 28 38 mph 1003.9mb 39f 21f
1:48pm 24 33 mph 1004.1mb 39f 22f
1:42pm 28 34 mph 1004.1mb 39f 22f
1:36pm 25 32 mph 1004.1mb 39f 22f
1:30pm 28 33 mph 1004.2mb 39f 21f
1:24pm 23 29 mph 1004.3mb 39f 22f
1:18pm 25 34 mph 1004.3mb 39f 22f
1:12pm 31 37 mph 1004.3mb 39f 21f
1:06pm 25 36 mph 1004.5mb 39f 21f
1:00pm 28 36 mph 1004.4mb 39f 21f
12:54pm 28 34 mph 1004.5mb 39f 21f
12:48pm 26 33 mph 1004.7mb 39f 21f
12:42pm 25 32 mph 1004.9mb 40f 21f
12:36pm 24 32 mph 1005.3mb 40f 21f
12:30pm 28 33 mph 1005.4mb 40f 21f
12:24pm 26 33 mph 1005.6mb 40f 22f
12:18pm 26 33 mph 1005.7mb 40f 21f
12:12pm 24 34 mph 1005.9mb 40f 22f
12:06pm 28 33 mph 1005.8mb 40f 22f
12:00pm 28 34 mph 1006mb 40f 22f
11:54am 24 36 mph 1006.1mb 40f 22f
11:48am 26 41 mph 1006.1mb 40f 22f
11:42am 34 40 mph 1006.1mb 40f 22f
11:36am 30 37 mph 1006.4mb 40f 22f
11:30am 32 38 mph 1006.5mb 40f 22f
11:24am 26 33 mph 1006.7mb 40f 22f
11:18am 28 33 mph 1006.8mb 40f 22f
11:12am 28 32 mph 1006.9mb 40f 22f
11:06am 28 34 mph 1007.1mb 40f 22f
11:00am 28 34 mph 1007.2mb 40f 22f
10:54am 26 34 mph 1007.4mb 40f 23f
10:48am 25 36 mph 1007.5mb 40f 23f
10:42am 29 34 mph 1007.5mb 40f 23f
10:36am 30 38 mph 1007.7mb 40f 23f
10:30am 26 33 mph 1007.8mb 40f 24f
10:24am 29 34 mph 1007.8mb 40f 24f
10:18am 24 31 mph 1008.1mb 40f 24f
10:12am 26 32 mph 1008mb 40f 24f
10:06am 24 32 mph 1008.1mb 40f 25f
10:00am 24 30 mph 1008.1mb 40f 25f
9:54am 26 30 mph 1008mb 40f 25f
9:48am 22 28 mph 1007.9mb 40f 26f
9:42am 23 28 mph 1007.8mb 40f 26f
9:36am 23 28 mph 1007.8mb 40f 26f
9:30am 26 32 mph 1007.7mb 40f 28f
9:24am 25 32 mph 1007.7mb 40f 28f
9:18am 24 32 mph 1007.7mb 40f 28f
9:12am 22 31 mph 1007.8mb 40f 29f
9:06am 24 31 mph 1007.8mb 40f 29f
9:00am 23 26 mph 1007.8mb 40f 29f
8:54am 22 28 mph 1007.9mb 40f 29f
8:48am 23 29 mph 1007.9mb 40f 30f
8:42am 21 31 mph 1007.9mb 40f 31f
8:36am 23 33 mph 1007.8mb 40f 31f
8:30am 28 34 mph 1007.7mb 40f 31f
8:24am 29 38 mph 1007.7mb 40f 31f
8:18am 30 37 mph 1007.7mb 40f 31f
8:12am 28 34 mph 1007.8mb 40f 31f
8:06am 30 33 mph 1007.9mb 40f 31f
8:00am 29 36 mph 1008mb 40f 31f
7:54am 30 34 mph 1008.1mb 40f 31f
7:48am 29 38 mph 1008.2mb 40f 31f
7:42am 30 37 mph 1008.2mb 40f 31f
7:36am 29 38 mph 1008.4mb 40f 32f
7:30am 30 36 mph 1008.4mb 40f 32f
7:24am 28 37 mph 1008.4mb 40f 32f
7:18am 31 37 mph 1008.4mb 40f 33f
7:12am 31 40 mph 1008.4mb 40f 33f
7:06am 32 40 mph 1008.3mb 40f 33f
7:00am 32 40 mph 1008.1mb 40f 33f
6:54am 33 41 mph 1008.1mb 40f 34f
6:48am 32 43 mph 1008mb 40f 34f
6:42am 30 44 mph 1008.1mb 40f 35f
6:36am 36 44 mph 1008.1mb 40f 35f
6:30am 31 45 mph 1008.1mb 40f 35f
6:24am 39 44 mph 1008mb 40f 35f
6:18am 33 37 mph 1008.3mb 40f 36f
6:12am 34 41 mph 1008.3mb 40f 36f
6:06am 31 40 mph 1008.1mb 40f 36f
6:00am 31 39 mph 1008.1mb 40f 36f
5:54am 34 43 mph 1008.2mb 40f 36f
5:48am 36 43 mph 1008.2mb 40f 36f
5:42am 37 44 mph 1008.3mb 40f 36f
5:36am 33 41 mph 1008.4mb 40f 36f
5:30am 33 38 mph 1008.4mb 40f 36f
5:24am 34 47 mph 1008.4mb 40f 36f
5:18am 38 43 mph 1008.3mb 40f 36f
5:12am 34 44 mph 1008.2mb 40f 37f
5:06am 37 47 mph 1008.1mb 40f 37f
5:00am 30 48 mph 1007.9mb 40f 37f
4:54am 34 43 mph 1007.8mb 40f 37f
4:48am  -  mph 1007.7mb 40f 37f
4:42am  -  mph 1007.6mb 40f 37f
4:36am  -  mph 1007.4mb 40f 37f
4:30am 33 41 mph 1007.6mb 40f 37f
4:24am 33 40 mph 1007.7mb 40f 37f
4:18am 30 39 mph 1008mb 40f 38f
4:12am 33 43 mph 1008.1mb 40f 38f
4:06am 33 38 mph 1008.2mb 40f 38f
4:00am 30 45 mph 1008.4mb 40f 38f
3:54am 33 40 mph 1008.4mb 40f 38f
3:48am 30 38 mph 1008.4mb 40f 38f
3:42am 32 44 mph 1008.4mb 40f 38f
3:36am 37 45 mph 1008.5mb 40f 39f
3:30am 33 43 mph 1008.5mb 40f 39f
3:24am 31 38 mph 1008.8mb 40f 39f
3:18am 30 36 mph 1009.1mb 40f 39f
3:12am 31 36 mph 1009mb 40f 39f
3:06am 30 34 mph 1009mb 40f 39f
3:00am 29 38 mph 1009mb 40f 39f
2:54am 30 36 mph 1009.2mb 40f 39f
2:48am 28 32 mph 1009.6mb 40f 39f
2:42am 26 36 mph 1010mb 40f 39f
2:36am 29 33 mph 1010.1mb 40f 39f
2:30am 25 31 mph 1010.4mb 40f 39f
2:24am 26 37 mph 1010.6mb 40f 39f
2:18am 30 33 mph 1010.6mb 40f 39f
2:12am 26 32 mph 1010.8mb 40f 39f
2:06am 26 32 mph 1010.9mb 40f 39f
2:00am 22 30 mph 1011mb 40f 39f
1:54am 28 33 mph 1011.1mb 40f 40f
1:48am 26 31 mph 1011.3mb 40f 39f
1:42am 25 31 mph 1011.3mb 40f 39f
1:36am 22 29 mph 1011.4mb 40f 39f
1:30am 24 29 mph 1011.4mb 40f 39f
1:24am 22 25 mph 1011.5mb 40f 39f
1:18am 22 25 mph 1011.6mb 40f 39f
1:12am 22 25 mph 1011.7mb 40f 38f
1:06am 21 24 mph 1012mb 40f 38f
1:00am 21 23 mph 1012.2mb 40f 38f
12:54am 20 26 mph 1012.5mb 40f 38f
12:48am 21 24 mph 1012.7mb 40f 38f
12:42am 22 23 mph 1012.8mb 40f 38f
12:36am 20 25 mph 1012.9mb 40f 38f
12:30am 22 25 mph 1013.1mb 41f 38f
12:24am 18 24 mph 1013.3mb 41f 38f
12:18am 20 23 mph 1013.6mb 41f 38f
12:12am 20 22 mph 1013.9mb 41f 38f
12:06am 18 22 mph 1014.2mb 41f 38f
12:00am 18 21 mph 1014.4mb 41f 38f
Sun 02/07 11:54pm 18 22 mph 1014.7mb 41f 38f
11:48pm 17 22 mph 1014.9mb 41f 38f
11:42pm 18 21 mph 1015.1mb 41f 38f
11:36pm 17 20 mph 1015.3mb 41f 38f
11:30pm 17 20 mph 1015.4mb 41f 38f
11:24pm 16 20 mph 1015.5mb 41f 38f
11:18pm 16 18 mph 1015.6mb 41f 38f
11:12pm 17 20 mph 1015.6mb 41f 38f
11:06pm 17 20 mph 1015.5mb 41f 38f
11:00pm 17 20 mph 1015.6mb 41f 38f
10:54pm 17 20 mph 1015.7mb 41f 38f
10:48pm 16 18 mph 1015.7mb 41f 38f
10:42pm 16 18 mph 1015.8mb 41f 38f
10:36pm 15 17 mph 1015.9mb 41f 38f
10:30pm 16 20 mph 1016mb 41f 38f
10:24pm 17 20 mph 1016mb 41f 38f
10:18pm 17 20 mph 1016.2mb 41f 38f
10:12pm 15 18 mph 1016.3mb 41f 38f
10:06pm 16 18 mph 1016.3mb 41f 38f
10:00pm 16 18 mph 1016.3mb 41f 38f
9:54pm 16 18 mph 1016.4mb 41f 38f
9:48pm 15 18 mph 1016.6mb 41f 38f
9:42pm 15 17 mph 1016.7mb 41f 38f
9:36pm 15 17 mph 1016.8mb 41f 38f
9:30pm 16 17 mph 1017mb 41f 38f
9:24pm 16 20 mph 1017.1mb 41f 38f
9:18pm 17 20 mph 1017mb 41f 38f
9:12pm 17 21 mph 1017mb 41f 38f
9:06pm 17 20 mph 1017mb 41f 38f
9:00pm  -  mph 1016.9mb 41f 38f
8:54pm  -  mph 1017.1mb 41f 38f
8:48pm  -  mph 1017.1mb 41f 38f
8:42pm  -  mph 1017.4mb 41f 38f
8:36pm  -  mph 1017.7mb 41f 38f
8:30pm 16 18 mph 1018mb 41f 38f
8:24pm 15 18 mph 1018.2mb 41f 38f
8:18pm  -  mph 1018.3mb 40f 38f
8:12pm  -  mph 1018.3mb 40f 38f
8:06pm  -  mph 1018.2mb 40f 38f
8:00pm  -  mph 1018.3mb 40f 38f
7:54pm  -  mph 1018.4mb 40f 38f
7:48pm  -  mph 1018.5mb 40f 39f
7:42pm  -  mph 1018.5mb 40f 39f
7:36pm  -  mph 1018.6mb 40f 39f
7:30pm 14 16 mph 1018.7mb 41f 39f
7:24pm 14 17 mph 1018.8mb 41f 39f
7:18pm 15 17 mph 1018.9mb 41f 39f
7:12pm 14 16 mph 1018.8mb 41f 40f
7:06pm 14 15 mph 1018.7mb 41f 40f
7:00pm 13 15 mph 1018.7mb 41f 40f
6:54pm 14 15 mph 1018.8mb 41f 40f
6:48pm 14 15 mph 1018.7mb 41f -
6:42pm 14 16 mph 1018.8mb 41f -
6:36pm 11 13 mph 1018.9mb 40f -
6:30pm 11 14 mph 1018.9mb 40f 40f
6:24pm 13 15 mph 1018.8mb 40f 40f
6:18pm  -  mph 1018.7mb 40f 40f
6:12pm  -  mph 1018.7mb 40f 40f
6:06pm  -  mph 1018.7mb 41f 40f
6:00pm 8 9 mph 1018.8mb 41f 40f
5:54pm 6 7 mph 1019.1mb 41f 40f
5:48pm 5 7 mph 1019.2mb 41f 39f
5:42pm 6
mph
1019.1mb 41f 39f
5:36pm 6 7 mph 1018.9mb 41f 38f
5:30pm 6
mph
1018.9mb 41f 39f
5:24pm 6 8 mph 1019mb 41f 38f
5:18pm 7 8 mph 1019mb 41f 39f
5:12pm 7
mph
1018.9mb 41f 39f
5:06pm 6 7 mph 1018.9mb 41f 39f
5:00pm 5 6 mph 1019.1mb 41f 39f
4:54pm 3 5 mph 1019mb 41f 40f
4:48pm  -  mph 1019.1mb 41f 40f
4:42pm  -  mph 1019.1mb 41f 40f
4:36pm  -  mph 1018.9mb 41f 40f
4:30pm 5
mph
1018.8mb 41f 40f
4:24pm 3 5 mph 1018.8mb 41f 40f
4:18pm 3 5 mph 1018.9mb 41f 40f
4:12pm 3
mph
1019mb 41f 40f
4:06pm 2
mph
1018.9mb 41f 40f
4:00pm 3
mph
1018.9mb 41f 40f
3:54pm 2 3 mph 1018.9mb 41f 40f
3:48pm 1
mph
1018.9mb 41f 41f
3:42pm  -  mph 1018.9mb 41f 42f
3:36pm  -  3 mph 1019.1mb 41f 41f
3:30pm 3 5 mph 1019.4mb 41f 41f
3:24pm 3 5 mph 1019.5mb 41f 41f
3:18pm 3 5 mph 1019.6mb 41f 41f
3:12pm 5 7 mph 1019.7mb 41f 41f
3:06pm 7 9 mph 1019.8mb 41f 41f
3:00pm 8 9 mph 1019.9mb 41f 40f
2:54pm 7 8 mph 1019.8mb 41f 40f
2:48pm 8
mph
1019.8mb 41f 40f
2:42pm 6 7 mph 1019.9mb 41f 41f
2:36pm 7 8 mph 1019.9mb 41f 40f
2:30pm 7 8 mph 1020mb 41f 40f
2:24pm 7 8 mph 1020.2mb 41f 40f
2:18pm 7 8 mph 1020.3mb 41f 40f
2:12pm 8 9 mph 1020.5mb 41f 40f
2:06pm 9 11 mph 1020.5mb 41f 40f
2:00pm 9 11 mph 1020.5mb 40f 40f
1:54pm 10
mph
1020.7mb 40f 40f
1:48pm 9 11 mph 1020.8mb 40f 40f
1:42pm 10 11 mph 1020.8mb 40f 40f
1:36pm 8 10 mph 1020.8mb 40f 40f
1:30pm 9 11 mph 1020.9mb 40f 40f
1:24pm 10 13 mph 1021mb 40f 40f
1:18pm 11 14 mph 1021.1mb 40f 40f
1:12pm 10 11 mph 1021.2mb 40f 40f
1:06pm 9 10 mph 1021.2mb 40f 41f
1:00pm 6
mph
1021.3mb 40f 40f
12:54pm 7 8 mph 1021.4mb 40f 40f
12:48pm 3
mph
1021.4mb 40f 41f
12:42pm 3 5 mph 1021.6mb 40f 41f
12:36pm 3 5 mph 1021.7mb 40f 40f
12:30pm 3 6 mph 1021.7mb 40f 40f
12:24pm 6 8 mph 1021.4mb 40f 39f
12:18pm 6 7 mph 1021.3mb 40f 38f
12:12pm 6 8 mph 1021.1mb 40f 38f
12:06pm 5 6 mph 1020.9mb 40f 38f
12:00pm 5 6 mph 1020.7mb 40f 38f
11:54am 6
mph
1020.6mb 40f 38f
11:48am 5 6 mph 1020.7mb 40f 38f
11:42am 5 6 mph 1020.8mb 40f 37f
11:36am 5 6 mph 1020.8mb 40f 37f
11:30am 6
mph
1020.5mb 40f 37f
11:24am 6
mph
1020.6mb 40f 37f
11:18am 6
mph
1020.6mb 40f 37f
11:12am 5 6 mph 1021mb 40f 37f
11:06am 6
mph
1021.1mb 40f 37f
11:00am 3 5 mph 1021.5mb 40f 37f
10:54am 5 6 mph 1021.5mb 40f 37f
10:48am 3 5 mph 1021.6mb 40f 37f
10:42am 5
mph
1021.7mb 40f 37f
10:36am 5
mph
1021.5mb 40f 37f
10:30am 5
mph
1021.4mb 40f 37f
10:24am 3 5 mph 1021.8mb 40f 37f
10:18am  -  2 mph 1022.1mb 40f 39f
10:12am 2
mph
1022.1mb 40f 39f
10:06am  -  2 mph 1022.2mb 40f 41f
10:00am  -  2 mph 1022.4mb 40f 40f
9:54am 2 3 mph 1022.5mb 40f 39f
9:48am 1 5 mph 1022.4mb 40f 38f
9:42am 2 6 mph 1022.3mb 40f 37f
9:36am 3 6 mph 1022.2mb 40f 37f
9:30am 6
mph
1022.3mb 40f 36f
9:24am 6 7 mph 1022.5mb 40f 36f
9:18am 6 8 mph 1022.4mb 40f 36f
9:12am 7 8 mph 1022.6mb 40f 36f
9:06am 5 6 mph 1022.5mb 40f 37f
9:00am 3
mph
1022.3mb 40f 38f
8:54am  -  1 mph 1022.3mb 40f 41f
8:48am  -  2 mph 1022.2mb 40f 39f
8:42am 2 3 mph 1022.4mb 40f 37f
8:36am  -  3 mph 1022.4mb 40f 37f
8:30am 3
mph
1022.5mb 40f 34f
8:24am 2 5 mph 1022.4mb 40f 34f
8:18am 5 6 mph 1022.3mb 40f 34f
8:12am 3 6 mph 1022.1mb 39f 34f
8:06am 5 6 mph 1022.3mb 39f 34f
8:00am 3 5 mph 1022.1mb 39f 33f
7:54am 2
mph
1022.2mb 39f 34f
7:48am 1 6 mph 1022.5mb 39f 35f
7:42am 6 8 mph 1022.6mb 39f 34f
7:36am 8 10 mph 1022.8mb 39f 33f
7:30am 9 11 mph 1022.7mb 39f 33f
7:24am 9 11 mph 1022.8mb 39f 33f
7:18am 9 10 mph 1022.8mb 39f 33f
7:12am 10 11 mph 1022.7mb 39f 32f
7:06am 10 11 mph 1022.6mb 39f 32f
7:00am 10 11 mph 1022.5mb 39f 32f
6:54am 10 11 mph 1022.5mb 39f 32f
6:48am 9 10 mph 1022.3mb 39f 33f
6:42am 8 10 mph 1022mb 39f 33f
6:36am 9 11 mph 1022mb 39f 33f
6:30am 9 11 mph 1021.9mb 39f 33f
6:24am 9 11 mph 1021.8mb 39f 33f
6:18am 9 11 mph 1021.8mb 39f 33f
6:12am 10 13 mph 1021.8mb 39f 33f
6:06am 11 14 mph 1021.9mb 39f 33f
6:00am 10 13 mph 1022mb 39f 34f
5:54am 8 10 mph 1022.1mb 39f 33f
5:48am 8 10 mph 1022.1mb 39f 33f
5:42am 8 11 mph 1022.1mb 39f 33f
5:36am 8 11 mph 1022mb 39f 33f
5:30am 8 11 mph 1021.9mb 39f 33f
5:24am 9 11 mph 1021.8mb 39f 33f
5:18am 8 10 mph 1022mb 39f 33f
5:12am 8 11 mph 1022.1mb 39f 33f
5:06am 9 11 mph 1022.1mb 39f 33f
5:00am 10 11 mph 1022.2mb 39f 33f
4:54am 10 14 mph 1022.3mb 39f 33f
4:48am  -  mph - 39f 34f
4:42am  -  mph - 39f 34f
4:36am  -  mph - 39f 33f
4:30am 11 13 mph 1022.7mb 39f 33f
4:24am 9 11 mph 1022.6mb 39f 33f
4:18am 10 13 mph 1022.6mb 39f 33f
4:12am 10 13 mph 1022.7mb 39f 33f
4:06am 9 10 mph 1022.8mb 39f 33f
4:00am 8 10 mph 1022.8mb 39f 33f
3:54am 7 8 mph 1022.9mb 39f 33f
3:48am 7 9 mph 1022.9mb 39f 33f
3:42am 8 10 mph 1023mb 39f 33f
3:36am 8 10 mph 1023mb 39f 33f
3:30am 8 10 mph 1023mb 39f 33f
3:24am 8 10 mph 1023mb 39f 33f
3:18am 9 11 mph 1023mb 39f 33f
3:12am 9 11 mph 1023.2mb 39f 33f
3:06am 8 10 mph 1023.1mb 39f 33f
3:00am 8 9 mph 1023mb 39f 33f
2:54am 8 9 mph 1023mb 39f 33f
2:48am 7 8 mph 1023mb 39f 33f
2:42am 7 9 mph 1022.9mb 39f 33f
2:36am 7 8 mph 1022.9mb 39f 33f
2:30am 7 8 mph 1023mb 39f 33f
2:24am 7 8 mph 1023.1mb 39f 33f
2:18am 6 8 mph 1023.1mb 39f 33f
2:12am 7 8 mph 1023.3mb 39f 33f
2:06am 7 8 mph 1023.2mb 39f 33f
2:00am 7 8 mph 1023.2mb 39f 33f
1:54am 7 9 mph 1023.2mb 39f 33f
1:48am 7 8 mph 1023.3mb - -
1:42am 7
mph
1023.3mb - -
1:36am 5 6 mph 1023.4mb - -
1:30am 6
mph
1023.4mb 39f 33f
1:24am 5 6 mph 1023.6mb 39f 33f
1:18am 5 6 mph 1023.7mb 39f 33f
1:12am 6 7 mph 1023.8mb 39f 33f
1:06am 6 8 mph 1023.8mb 39f 33f
1:00am 6 8 mph 1024mb 40f 33f
12:54am 7 8 mph 1024mb 40f 33f
12:48am 7 8 mph 1024mb 40f 33f
12:42am 7 8 mph 1024mb 40f 33f
12:36am 8 9 mph 1024.1mb 40f 33f
12:30am 8
mph
1024.1mb 40f 33f
12:24am 7 9 mph 1024.2mb 40f 33f
12:18am 7 8 mph 1024.3mb 40f 33f
12:12am 8 10 mph 1024.4mb 40f 33f
12:06am 10 11 mph 1024.5mb 40f 34f
12:00am 10 13 mph 1024.6mb 40f 34f
Sat 02/06 11:54pm 11 13 mph 1024.6mb 40f 34f
11:48pm 10 11 mph 1024.7mb 40f 35f
11:42pm 11 13 mph 1024.7mb 40f 34f
11:36pm 11
mph
1024.8mb 40f 34f
11:30pm 9 10 mph 1024.8mb 40f 34f
11:24pm 9 11 mph 1025mb 40f 34f
11:18pm 10 11 mph 1025mb 40f 34f
11:12pm 9 11 mph 1025.1mb 40f 34f
11:06pm 10 13 mph 1025.1mb 40f 33f
11:00pm 10 11 mph 1025.1mb 40f 33f
10:54pm 10 11 mph 1025.1mb 40f 34f
10:48pm 9 10 mph 1025.2mb 40f 33f
10:42pm 9 10 mph 1025.2mb 40f 33f
10:36pm 9 10 mph 1025.3mb 40f 34f
10:30pm 9 11 mph 1025.3mb 40f 34f
10:24pm 9 10 mph 1025.2mb 40f 34f
10:18pm 9 11 mph 1025.2mb 40f 33f
10:12pm 10 11 mph 1025.3mb 40f 33f
10:06pm 10 11 mph 1025.3mb 40f 33f
10:00pm 10 13 mph 1025.5mb 40f 33f
9:54pm 11 13 mph 1025.6mb 40f 33f
9:48pm 9 10 mph 1025.6mb 40f 33f
9:42pm 10 11 mph 1025.7mb 40f 33f
9:36pm 9 11 mph 1025.6mb 40f 33f
9:30pm 9 11 mph 1025.6mb 40f 33f
9:24pm 10 11 mph 1025.6mb 40f 33f
9:18pm 9 10 mph 1025.7mb 40f 33f
9:12pm 9 10 mph 1025.7mb 40f 33f
9:06pm 9 10 mph 1025.7mb 40f 34f
9:00pm 10 11 mph 1025.8mb 40f 34f
8:54pm 10 13 mph 1025.8mb 40f 34f
8:48pm  -  mph 1025.8mb 40f 34f
8:42pm  -  mph 1025.8mb 40f 34f
8:36pm  -  mph 1025.8mb 40f 34f
8:30pm 11 13 mph 1025.8mb 40f 34f
8:24pm 11 14 mph 1025.9mb 40f 34f
8:18pm 13
mph
1025.8mb 40f 34f
8:12pm 11 13 mph 1025.8mb 40f 34f
8:06pm 10 14 mph 1025.9mb 40f 34f
8:00pm 11 14 mph 1025.9mb 40f 34f
7:54pm 11 14 mph 1025.9mb 40f 34f
7:48pm 11 14 mph 1025.8mb 40f 34f
7:42pm 11 14 mph 1025.9mb 40f 34f
7:36pm 11 14 mph 1025.9mb 40f 34f
7:30pm 11 14 mph 1025.9mb 40f 34f
7:24pm 10 13 mph 1026mb 40f 35f
7:18pm 11 13 mph 1026mb 40f 34f
7:12pm 13 15 mph 1026mb 40f 34f
7:06pm 13 15 mph 1026mb 40f 34f
7:00pm 11 14 mph 1026mb 40f 35f
6:54pm 13 15 mph 1026mb 40f 35f
6:48pm 14 15 mph 1026.1mb 40f -
6:42pm 13 15 mph 1026.1mb 40f -
6:36pm 13 16 mph 1026.1mb 40f -
6:30pm 13 14 mph 1026.2mb 40f 34f
6:24pm 14 15 mph 1026.1mb 40f 34f
6:18pm 13 16 mph 1026.2mb 40f 34f
6:12pm 13 16 mph 1026.2mb 40f 34f
6:06pm 13 15 mph 1026.2mb 40f 35f
6:00pm 14 16 mph 1026.1mb 40f 34f
5:54pm 13 15 mph 1026mb 40f 34f
5:48pm 13 16 mph 1026mb 40f 34f
5:42pm 13 15 mph 1026mb 40f 34f
5:36pm 13 15 mph 1026mb 40f 34f
5:30pm 14 17 mph 1025.9mb 40f 34f
5:24pm 14 16 mph 1025.9mb 40f 34f
5:18pm 14 16 mph 1025.9mb 40f 35f
5:12pm 13 16 mph 1025.9mb 40f 35f
5:06pm 14 16 mph 1026.1mb 40f 34f
5:00pm  -  mph 1026.1mb 40f 35f
4:54pm  -  mph 1026.2mb 40f 35f
4:48pm 14 16 mph 1026.1mb 40f 35f
4:42pm 15 17 mph 1026.1mb 40f 35f
4:36pm 14 17 mph 1026mb 40f 35f
4:30pm 14 15 mph 1026mb 40f 35f
4:24pm 11 16 mph 1026mb 40f 35f
4:18pm 13 14 mph 1026.1mb 40f 35f
4:12pm 13 16 mph 1026.1mb 40f 35f
4:06pm 14 17 mph 1026.2mb 40f 35f
4:00pm 14 15 mph 1026.2mb 40f 35f
3:54pm 14 16 mph 1026.1mb 40f 35f
3:48pm 13 16 mph 1026.3mb 40f 35f
3:42pm 15 17 mph 1026.4mb 40f 35f
3:36pm 13 16 mph 1026.4mb 40f 35f
3:30pm 13 16 mph 1026.5mb 40f 35f
3:24pm 14 18 mph 1026.5mb 40f 35f
3:18pm 16 21 mph 1026.5mb 40f 35f
3:12pm 14 21 mph 1026.6mb 40f 35f
3:06pm 17 21 mph 1026.5mb 40f 35f
3:00pm 17 21 mph 1026.6mb 40f 35f
2:54pm 16 20 mph 1026.7mb 40f 35f
2:48pm 13 18 mph 1026.8mb 40f 35f
2:42pm 15 20 mph 1026.9mb 40f 35f
2:36pm 13 16 mph 1026.8mb 40f 35f
2:30pm 14 18 mph 1026.8mb 40f 35f
2:24pm 13 17 mph 1026.9mb 40f 35f
2:18pm 15 21 mph 1027mb 40f 35f
2:12pm 14 17 mph 1027.1mb 40f 35f
2:06pm 13 16 mph 1027.2mb 40f 35f
2:00pm 14 17 mph 1027.2mb 40f 35f
1:54pm 14 17 mph 1027.2mb 40f 35f
1:48pm 15 16 mph 1027.2mb 40f 35f
1:42pm 14 17 mph 1027.2mb 40f 35f
1:36pm 14 16 mph 1027.3mb 40f 35f
1:30pm 14 16 mph 1027.3mb 40f 35f
1:24pm 13 17 mph 1027.4mb 40f 35f
1:18pm 11 14 mph 1027.5mb 40f 35f
1:12pm 14 16 mph 1027.6mb 40f 35f
1:06pm 10 15 mph 1027.6mb 40f 35f
1:00pm 11 14 mph 1027.6mb 40f 35f
12:54pm 11 15 mph 1027.7mb 40f 35f
12:48pm 13 15 mph 1027.7mb 40f 34f
12:42pm 11 14 mph 1027.8mb 39f 35f
12:36pm 9 14 mph 1027.9mb 39f 35f
12:30pm 10 14 mph 1028mb 39f 35f
12:24pm 9 13 mph 1028.2mb 39f 35f
12:18pm 9 11 mph 1028.3mb 39f 35f
12:12pm 7 9 mph 1028.4mb 39f 35f
12:06pm 8 10 mph 1028.5mb 39f 35f
12:00pm 9 10 mph 1028.6mb 39f 34f
11:54am 9 13 mph 1028.8mb 39f 34f
11:48am 10 13 mph 1028.8mb 39f 34f
11:42am 7 9 mph 1028.9mb 39f 35f
11:36am 7 9 mph 1029mb 39f 35f
11:30am 8 9 mph 1029.3mb 39f 34f
11:24am 7 9 mph 1029.3mb 39f 34f
11:18am 6 7 mph 1029.4mb 39f 34f
11:12am 5 7 mph 1029.6mb 39f 34f
11:06am 6 8 mph 1029.8mb 39f 33f
11:00am 6 8 mph 1029.9mb 39f 32f
10:54am 6 7 mph 1029.9mb 39f 32f
10:48am 5 6 mph 1029.9mb 39f 32f
10:42am 6
mph
1030.1mb 40f 32f
10:36am 6 7 mph 1030.1mb 40f 32f
10:30am 6 7 mph 1030.1mb 40f 32f
10:24am 6
mph
1030.1mb 40f 32f
10:18am 5 6 mph 1030.1mb 40f 32f
10:12am 5 6 mph 1030.2mb 40f 31f
10:06am 6 7 mph 1030.3mb 40f 31f
10:00am 5 6 mph 1030.1mb 40f 31f
9:54am 5 6 mph 1029.8mb 40f 30f
9:48am 5 6 mph 1029.9mb 40f 30f
9:42am 5 6 mph 1029.9mb 40f 30f
9:36am 6 7 mph 1029.9mb 40f 29f
9:30am 7 8 mph 1029.8mb 40f 29f
9:24am 6 7 mph 1029.8mb 40f 29f
9:18am 6 7 mph 1029.8mb 39f 29f
9:12am 6 7 mph 1029.8mb 39f 29f
9:06am 6 7 mph 1029.7mb 39f 28f
9:00am 6 7 mph 1029.7mb 39f 28f
8:54am 6 7 mph 1029.7mb 39f 28f
8:48am 6 7 mph 1029.6mb 39f 27f
8:42am 5 6 mph 1029.6mb 39f 27f
8:36am 6
mph
1029.6mb 39f 27f
8:30am 5 7 mph 1029.6mb 39f 26f
8:24am 6 7 mph 1029.6mb 39f 27f
8:18am 7 8 mph 1029.6mb 39f 26f
8:12am 5 8 mph 1029.5mb 39f 26f
8:06am 6 7 mph 1029.5mb 39f 25f
8:00am 6 7 mph 1029.5mb 39f 26f
7:54am 6
mph
1029.4mb 39f 25f
7:48am 6 7 mph 1029.4mb 39f 25f
7:42am 6
mph
1029.4mb 39f 25f
7:36am 5 6 mph 1029.4mb 39f 24f
7:30am 5 7 mph 1029.3mb 39f 25f
7:24am 6 7 mph 1029.2mb 39f 25f
7:18am 6 8 mph 1029.3mb 39f 24f
7:12am 7 9 mph 1029.3mb 39f 24f
7:06am 6 8 mph 1029.2mb 39f 24f
7:00am 6 8 mph 1029mb 39f 23f
6:54am 7 9 mph 1029mb 39f 22f
6:48am 7 9 mph 1028.9mb 39f 23f
6:42am 6 8 mph 1028.9mb 39f 22f
6:36am 6 8 mph 1028.9mb 39f 22f
6:30am 7 8 mph 1028.9mb 39f 22f
6:24am 7 8 mph 1028.6mb 39f 23f
6:18am 6 7 mph 1028.5mb 39f 22f
6:12am 3 5 mph 1028.4mb 39f 22f
6:06am 3 6 mph 1028.2mb 39f 22f
6:00am 5 6 mph 1028.1mb 39f 21f
5:54am 5 6 mph 1028mb 39f 21f
5:48am 5 6 mph 1028.1mb 39f 21f
5:42am 5 6 mph 1027.9mb 39f 21f
5:36am 5 6 mph 1028mb 39f 22f
5:30am 2 6 mph 1028mb 39f 22f
5:24am 3 6 mph 1027.8mb 39f 21f
5:18am 3 5 mph 1027.8mb 39f 21f
5:12am 3 5 mph 1027.8mb 39f 21f
5:06am 3 5 mph 1027.7mb 39f 21f
5:00am 5
mph
1027.6mb 39f 21f
4:54am 3 6 mph 1027.7mb 39f 21f
4:48am  -  mph - 39f 21f
4:42am  -  mph - 39f 21f
4:36am  -  mph - 39f 21f
4:30am 3 5 mph 1027.6mb 39f 22f
4:24am 2 3 mph 1027.7mb 39f 22f
4:18am 2 3 mph 1027.6mb 39f 23f
4:12am 2 3 mph 1027.5mb 39f 23f
4:06am 3 5 mph 1027.5mb 39f 24f
4:00am 3 5 mph 1027.6mb 39f 24f
3:54am 3 6 mph 1027.4mb 39f 24f
3:48am 3 5 mph 1027.5mb 39f 24f
3:42am 3 5 mph 1027.4mb 39f 24f
3:36am 3 5 mph 1027.4mb 39f 24f
3:30am 2 3 mph 1027.3mb 39f 23f
3:24am 2 3 mph 1027.3mb 39f 23f
3:18am 2 3 mph 1027.2mb 39f 23f
3:12am 1 2 mph 1027mb 39f 23f
3:06am 1 5 mph 1027mb 39f 23f
3:00am 3
mph
1026.8mb 39f 23f
2:54am 2 5 mph 1027mb 39f 23f
2:48am 3 5 mph 1026.9mb 39f 23f
2:42am 3 6 mph 1026.9mb 39f 23f
2:36am 6
mph
1026.7mb 39f 23f
2:30am 3 5 mph 1026.9mb 39f 23f
2:24am 2 3 mph 1026.8mb 39f 23f
2:18am 3 5 mph 1026.7mb 39f 24f
2:12am 3
mph
1026.5mb 39f 24f
2:06am 2 3 mph 1026.5mb 39f 24f
2:00am 3 5 mph 1026.4mb 39f 24f
1:54am 3 5 mph 1026.2mb 39f 24f
1:48am 3
mph
1026.1mb 39f 24f
1:42am 3 5 mph 1026mb 39f 24f
1:36am 2 3 mph 1025.8mb 39f 24f
1:30am 1 3 mph 1025.7mb 39f 25f
1:24am 2 3 mph 1025.7mb 39f 24f
1:18am 2
mph
1025.6mb 39f 24f
1:12am 2 5 mph 1025.5mb 39f 24f
1:06am 3 6 mph 1025.4mb 39f 25f
1:00am 3 5 mph 1025.3mb 39f 25f
12:54am 3 5 mph 1025.3mb 39f 25f
12:48am 3 6 mph 1025.2mb 39f 25f
12:42am 3 5 mph 1025.2mb 39f 25f
12:36am 3 5 mph 1025.2mb 39f 25f
12:30am 3 5 mph 1025.2mb 39f 25f
12:24am 3 5 mph 1025.3mb 39f 25f
12:18am 3 5 mph 1025.2mb 39f 25f
12:12am 2 3 mph 1025.3mb 40f 25f
12:06am 3 5 mph 1025.2mb 40f 25f
12:00am 3 6 mph 1025.1mb 40f 25f
Fri 02/05 11:54pm 3 6 mph 1025mb 40f 25f
11:48pm 3 6 mph 1024.8mb 40f 25f
11:42pm 5 7 mph 1024.8mb 40f 25f
11:36pm 6 7 mph 1024.9mb 40f 26f
11:30pm 5 7 mph 1024.8mb 40f 26f
11:24pm 5 8 mph 1024.8mb 40f 26f
11:18pm 6 7 mph 1024.8mb 40f 26f
11:12pm 6 9 mph 1024.8mb 40f 26f
11:06pm 6 10 mph 1024.7mb 40f 26f
11:00pm 6 11 mph 1024.6mb 40f 26f
10:54pm 6 9 mph 1024.6mb 40f 26f
10:48pm 6 8 mph 1024.3mb 40f 26f
10:42pm 6 9 mph 1024.2mb 40f 26f
10:36pm 6 9 mph 1024.1mb 40f 26f
10:30pm 7 10 mph 1024mb 40f 26f
10:24pm 6 9 mph 1023.9mb 40f 26f
10:18pm 7 8 mph 1023.7mb 40f 26f
10:12pm 6 10 mph 1023.6mb 40f 26f
10:06pm 3 6 mph 1023.5mb 40f 26f
10:00pm 3 9 mph 1023.4mb 40f 26f
9:54pm 5 7 mph 1023.4mb 40f 27f
9:48pm 3 5 mph 1023.4mb 40f 26f
9:42pm 5 6 mph 1023.3mb 40f 26f
9:36pm 5 7 mph 1023.1mb 40f 27f
9:30pm 5 7 mph 1023mb 40f 27f
9:24pm 6 9 mph 1022.9mb 40f 27f
9:18pm 8 11 mph 1022.8mb 40f 27f
9:12pm 9 13 mph 1022.9mb 40f 27f
9:06pm 8 11 mph 1022.9mb 40f 27f
9:00pm 6 8 mph 1022.7mb 40f 27f
8:54pm 7 10 mph 1022.6mb 40f 27f
8:48pm 6 7 mph 1022.4mb 40f 27f
8:42pm 6 10 mph 1022.4mb 40f 27f
8:36pm 8 11 mph 1022.3mb 40f 27f
8:30pm 6 10 mph 1022.3mb 40f 27f
8:24pm 7 9 mph 1022.3mb 40f 27f
8:18pm 6 9 mph 1022.2mb 40f 27f
8:12pm 6 8 mph 1022mb 40f 27f
8:06pm 5 7 mph 1021.8mb 40f 27f
8:00pm 5 6 mph 1021.6mb 40f 27f
7:54pm 5 7 mph 1021.7mb 40f 28f
7:48pm 5 6 mph 1021.6mb 40f 28f
7:42pm 3 5 mph 1021.4mb 40f 28f
7:36pm 3 5 mph 1021.2mb 40f 28f